Kraemer, Louisiana
Current Conditions -  °F | °C
As of 2:55 PM on Saturday 25 Oct 2014 (Local Time) from K1L0 Reporting Station
Clear Clear  
Wind Chill: 81°   Ceiling: Unl
Heat Index: 81°   Visibility: 10mi
Dew Point: 53°   Wind: 5mph
Humidity: 37%   Direction: 350°N
Pressure: 30.09"   Gusts: NA
Location:  29.87°N, 90.7°W
Report Text: K1L0 251955Z AUTO 35004KT 10SM CLR 27/11 A3009 RMK AO2 T02730114
Loading
Personal Weather Stations






























Interactive Weather Map
Tropical Storm Tracking
New forecast layout! Learn more

10-Day Weather Forecast

Advertisements
Track Severe Weather on mobile